Time;durP1;ratioP1;P1;durP2;ratioP2;P2;SDS_P1;SDS_P2;PMS_P1;PMS_P2;Temp;Humidity;BMP_temperature;BMP_pressure;BME280_temperature;BME280_humidity;BME280_pressure;Samples;Min_cycle;Max_cycle;Signal;HPM_P1;HPM_P2
2022/03/25 00:00:06;;;;;;;32.13;21.73;;;;;;;6.28;55.50;101120.22;4975236;28;20710;-58
2022/03/25 00:02:32;;;;;;;31.67;21.73;;;;;;;6.11;56.07;101125.66;4970930;28;20231;-57
2022/03/25 00:04:57;;;;;;;33.13;22.80;;;;;;;6.19;56.25;101128.06;4974611;28;20184;-58
2022/03/25 00:07:22;;;;;;;32.80;22.77;;;;;;;6.09;56.29;101127.41;4975708;28;20208;-58
2022/03/25 00:09:48;;;;;;;32.27;21.13;;;;;;;6.06;56.32;101127.47;4973475;28;20656;-58
2022/03/25 00:12:14;;;;;;;31.97;22.70;;;;;;;5.96;56.28;101126.78;4939826;28;20763;-58
2022/03/25 00:14:39;;;;;;;35.33;24.07;;;;;;;5.90;56.70;101129.44;4991322;28;20233;-59
2022/03/25 00:17:05;;;;;;;31.03;23.57;;;;;;;5.86;56.59;101127.81;4966001;28;20233;-58
2022/03/25 00:19:31;;;;;;;34.03;22.60;;;;;;;5.81;57.00;101135.56;4993444;28;20202;-58
2022/03/25 00:21:57;;;;;;;37.03;23.53;;;;;;;5.81;57.19;101133.00;4984889;28;20222;-59
2022/03/25 00:24:24;;;;;;;34.67;22.80;;;;;;;5.78;57.78;101130.50;4993406;28;20662;-58
2022/03/25 00:26:49;;;;;;;35.23;23.60;;;;;;;5.72;57.73;101123.78;4992712;28;20242;-57
2022/03/25 00:29:15;;;;;;;36.83;23.30;;;;;;;5.68;57.03;101128.97;4988105;28;20579;-58
2022/03/25 00:31:40;;;;;;;31.40;22.57;;;;;;;5.64;57.55;101130.75;4961539;28;20219;-57
2022/03/25 00:34:05;;;;;;;41.83;24.77;;;;;;;5.60;58.38;101132.50;4976103;28;20219;-57
2022/03/25 00:36:31;;;;;;;36.90;23.73;;;;;;;5.58;58.58;101133.41;4973606;28;20184;-57
2022/03/25 00:38:56;;;;;;;31.40;22.57;;;;;;;5.51;59.21;101132.69;4982170;28;20290;-59
2022/03/25 00:41:23;;;;;;;38.00;23.63;;;;;;;5.30;60.92;101124.50;4992865;28;20645;-58
2022/03/25 00:43:49;;;;;;;36.60;23.13;;;;;;;5.14;61.98;101117.97;4996926;28;20270;-65
2022/03/25 00:46:15;;;;;;;33.13;23.57;;;;;;;5.13;61.82;101132.41;4992712;28;20638;-58
2022/03/25 00:48:42;;;;;;;35.87;23.50;;;;;;;5.09;62.62;101125.69;4991583;28;20175;-58
2022/03/25 00:51:08;;;;;;;36.90;24.37;;;;;;;5.10;62.75;101119.72;4984683;28;20226;-58
2022/03/25 00:53:33;;;;;;;41.60;24.53;;;;;;;5.04;63.14;101130.00;4990942;28;20222;-58
2022/03/25 00:56:03;;;;;;;38.53;24.37;;;;;;;5.16;62.37;101122.16;4992388;28;20203;-59
2022/03/25 00:58:29;;;;;;;35.83;24.50;;;;;;;5.11;62.79;101123.97;4991258;28;20274;-59
2022/03/25 01:00:55;;;;;;;39.13;25.50;;;;;;;5.08;63.34;101120.59;4976926;28;20234;-60
2022/03/25 01:03:21;;;;;;;34.07;24.33;;;;;;;5.13;63.25;101119.66;4981805;28;20219;-58
2022/03/25 01:05:47;;;;;;;31.00;23.77;;;;;;;5.16;63.41;101118.78;4990828;28;20206;-58
2022/03/25 01:08:12;;;;;;;33.57;25.00;;;;;;;5.17;63.30;101116.22;4992325;28;20262;-58
2022/03/25 01:10:38;;;;;;;34.03;24.60;;;;;;;5.07;63.26;101122.28;4979435;28;20594;-58
2022/03/25 01:13:04;;;;;;;32.73;24.90;;;;;;;5.01;64.53;101124.94;4991079;28;20678;-57
2022/03/25 01:15:30;;;;;;;36.87;25.50;;;;;;;4.96;64.13;101126.72;4991873;28;20175;-58
2022/03/25 01:17:56;;;;;;;34.03;24.63;;;;;;;4.99;64.22;101124.97;4992225;28;20540;-57
2022/03/25 01:20:21;;;;;;;36.20;23.87;;;;;;;4.99;64.14;101121.59;4982611;28;20182;-57
2022/03/25 01:22:46;;;;;;;38.17;25.33;;;;;;;4.95;64.41;101123.34;4991182;28;20191;-58
2022/03/25 01:25:12;;;;;;;33.63;24.43;;;;;;;4.83;65.96;101121.78;4990569;28;20186;-59
2022/03/25 01:27:37;;;;;;;36.60;25.63;;;;;;;4.79;66.25;101120.16;4991761;28;20178;-58
2022/03/25 01:30:04;;;;;;;37.33;23.73;;;;;;;4.80;65.87;101123.53;4984880;28;20674;-58
2022/03/25 01:32:29;;;;;;;33.03;24.87;;;;;;;4.75;65.66;101121.09;5006954;28;20199;-57
2022/03/25 01:34:54;;;;;;;39.83;25.07;;;;;;;4.81;65.60;101125.22;4991980;28;20532;-61
2022/03/25 01:37:20;;;;;;;34.97;25.43;;;;;;;4.80;65.66;101126.94;4991447;28;20191;-57
2022/03/25 01:39:45;;;;;;;38.70;24.73;;;;;;;4.74;65.93;101123.63;4992202;28;20210;-57
2022/03/25 01:42:11;;;;;;;41.60;24.87;;;;;;;4.62;66.15;101122.09;4982573;28;20240;-58
2022/03/25 01:44:37;;;;;;;34.63;25.47;;;;;;;4.59;66.53;101115.34;4991387;28;20206;-58
2022/03/25 01:47:08;;;;;;;35.90;24.80;;;;;;;4.61;66.72;101125.50;4987538;28;20194;-58
2022/03/25 01:49:33;;;;;;;38.37;25.50;;;;;;;4.64;66.29;101112.72;4983763;28;20186;-58
2022/03/25 01:52:00;;;;;;;33.70;24.73;;;;;;;4.53;66.61;101116.25;4992881;28;20367;-57
2022/03/25 01:54:31;;;;;;;38.33;27.03;;;;;;;4.41;67.05;101110.50;4991139;28;20584;-58
2022/03/25 01:57:01;;;;;;;37.63;25.50;;;;;;;4.38;67.71;101113.91;4991962;28;20242;-60
2022/03/25 01:59:27;;;;;;;33.97;25.97;;;;;;;4.30;68.47;101118.25;4991369;28;20238;-58
2022/03/25 02:01:55;;;;;;;37.07;26.73;;;;;;;4.25;69.18;101115.75;4983162;28;20243;-58
2022/03/25 02:04:22;;;;;;;37.47;26.87;;;;;;;4.24;69.10;101116.63;4990189;28;20571;-57
2022/03/25 02:06:47;;;;;;;38.07;27.13;;;;;;;4.19;69.08;101109.06;4990730;28;20328;-58
2022/03/25 02:09:13;;;;;;;37.03;25.63;;;;;;;4.19;69.02;101113.28;4992300;28;20697;-57
2022/03/25 02:11:39;;;;;;;38.03;26.23;;;;;;;4.15;69.19;101112.47;4993910;28;20707;-58
2022/03/25 02:14:04;;;;;;;37.57;26.27;;;;;;;4.17;69.37;101113.31;4990045;28;20196;-58
2022/03/25 02:16:37;;;;;;;37.03;25.67;;;;;;;4.10;69.77;101119.31;4991859;28;20642;-58
2022/03/25 02:19:04;;;;;;;35.60;26.10;;;;;;;4.12;69.89;101111.66;4990562;28;20214;-58
2022/03/25 02:21:33;;;;;;;37.23;27.20;;;;;;;3.98;70.20;101107.59;4992824;28;20582;-58
2022/03/25 02:24:01;;;;;;;41.73;26.43;;;;;;;3.95;70.56;101107.63;4989686;28;20234;-59
2022/03/25 02:26:27;;;;;;;37.20;25.97;;;;;;;3.97;70.47;101112.69;4990326;28;20185;-58
2022/03/25 02:28:54;;;;;;;36.67;25.73;;;;;;;3.92;70.75;101102.56;4990599;28;20186;-59
2022/03/25 02:31:19;;;;;;;35.03;26.17;;;;;;;3.99;70.92;101101.63;4973314;28;20253;-59
2022/03/25 02:33:44;;;;;;;36.97;25.97;;;;;;;3.88;70.78;101103.44;4988776;28;20215;-57
2022/03/25 02:36:10;;;;;;;39.37;26.87;;;;;;;3.86;71.04;101103.47;4991445;28;20701;-58
2022/03/25 02:38:36;;;;;;;39.13;27.13;;;;;;;3.81;71.65;101105.22;4992755;28;20215;-59
2022/03/25 02:41:02;;;;;;;32.87;25.63;;;;;;;3.75;72.14;101096.81;4986791;28;20243;-59
2022/03/25 02:43:27;;;;;;;36.23;24.53;;;;;;;3.74;72.44;101100.22;5001990;28;20272;-59
2022/03/25 02:45:53;;;;;;;33.43;25.33;;;;;;;3.80;72.56;101097.59;4994950;28;20210;-58
2022/03/25 02:48:18;;;;;;;38.00;25.97;;;;;;;3.72;72.18;101097.66;4995076;28;20177;-59
2022/03/25 02:50:46;;;;;;;37.70;26.53;;;;;;;3.70;72.25;101104.50;4990264;28;20235;-59
2022/03/25 02:53:13;;;;;;;35.63;25.77;;;;;;;3.73;72.27;101104.44;4993181;28;21047;-58
2022/03/25 02:55:38;;;;;;;37.17;26.20;;;;;;;3.72;72.34;101110.38;4993400;28;20186;-58
2022/03/25 02:58:04;;;;;;;37.73;26.17;;;;;;;3.64;72.86;101107.09;4994887;28;20185;-58
2022/03/25 03:00:29;;;;;;;39.07;27.33;;;;;;;3.56;73.02;101104.63;4985737;28;20279;-58
2022/03/25 03:02:55;;;;;;;38.47;26.20;;;;;;;3.48;73.61;101102.13;5005950;28;20282;-59
2022/03/25 03:05:21;;;;;;;36.90;26.07;;;;;;;3.48;74.22;101096.22;4994621;28;20225;-58
2022/03/25 03:07:47;;;;;;;39.93;27.17;;;;;;;3.51;73.90;101099.56;4993297;28;20180;-59
2022/03/25 03:10:13;;;;;;;40.40;27.07;;;;;;;3.46;74.50;101103.00;4982799;28;20349;-59
2022/03/25 03:12:40;;;;;;;37.40;26.20;;;;;;;3.47;74.95;101099.59;4993547;28;20286;-59
2022/03/25 03:15:06;;;;;;;38.57;26.40;;;;;;;3.44;75.15;101099.66;4992815;28;20585;-58
2022/03/25 03:17:32;;;;;;;36.20;25.90;;;;;;;3.41;75.29;101108.13;4993167;28;20182;-58
2022/03/25 03:19:57;;;;;;;44.03;26.03;;;;;;;3.33;75.49;101102.28;4994220;28;20207;-57
2022/03/25 03:22:22;;;;;;;35.50;26.17;;;;;;;3.41;75.41;101107.28;4983058;28;20671;-58
2022/03/25 03:24:48;;;;;;;37.03;26.03;;;;;;;3.34;75.87;101097.16;4993744;28;20196;-58
2022/03/25 03:27:14;;;;;;;38.77;26.20;;;;;;;3.39;76.14;101102.22;4993124;28;20195;-58
2022/03/25 03:29:40;;;;;;;36.40;27.30;;;;;;;3.34;75.41;101106.50;4992940;28;20615;-58
2022/03/25 03:32:05;;;;;;;37.33;25.47;;;;;;;3.27;75.59;101113.34;4998814;28;20265;-58
2022/03/25 03:34:31;;;;;;;36.27;26.20;;;;;;;3.28;75.87;101106.56;4993672;28;20229;-58
2022/03/25 03:36:57;;;;;;;37.90;28.20;;;;;;;3.28;76.52;101098.94;4994164;28;20198;-59
2022/03/25 03:39:22;;;;;;;39.03;25.90;;;;;;;3.35;75.89;101103.94;4993869;28;20537;-58
2022/03/25 03:41:47;;;;;;;36.37;26.33;;;;;;;3.36;75.32;101108.19;4983291;28;20313;-58
2022/03/25 03:44:13;;;;;;;36.60;26.57;;;;;;;3.34;75.48;101107.34;4993109;28;20203;-59
2022/03/25 03:46:38;;;;;;;41.40;26.63;;;;;;;3.31;75.67;101103.97;4992646;28;20180;-59
2022/03/25 03:49:04;;;;;;;35.20;25.80;;;;;;;3.21;75.83;101103.22;4993428;28;20291;-59
2022/03/25 03:51:29;;;;;;;41.30;26.83;;;;;;;3.18;76.26;101103.25;4983132;28;20249;-58
2022/03/25 03:53:55;;;;;;;38.70;27.83;;;;;;;3.16;76.53;101104.94;4977655;28;20263;-58
2022/03/25 03:56:22;;;;;;;34.87;26.77;;;;;;;3.15;76.96;101108.34;4974441;28;20180;-58
2022/03/25 03:58:47;;;;;;;37.73;26.50;;;;;;;3.14;78.00;101101.56;4973077;28;20184;-59
2022/03/25 04:01:12;;;;;;;40.03;26.50;;;;;;;3.11;78.10;101104.97;4953705;28;20259;-58
2022/03/25 04:03:38;;;;;;;37.20;25.07;;;;;;;3.08;77.97;101107.56;4973008;28;20199;-58
2022/03/25 04:06:03;;;;;;;36.57;26.23;;;;;;;2.94;78.31;101110.19;4973851;28;20258;-58
2022/03/25 04:08:29;;;;;;;38.07;26.37;;;;;;;2.88;78.76;101110.25;4973963;28;20181;-57
2022/03/25 04:10:54;;;;;;;39.83;26.07;;;;;;;2.85;79.65;101103.47;4970527;28;20231;-58
2022/03/25 04:13:19;;;;;;;38.87;26.47;;;;;;;2.83;79.35;101110.25;4981820;28;20645;-57
2022/03/25 04:15:45;;;;;;;38.73;26.63;;;;;;;2.74;79.55;101110.31;4969260;28;20239;-57
2022/03/25 04:18:10;;;;;;;40.93;27.67;;;;;;;2.64;80.02;101109.53;4983093;28;20566;-57
2022/03/25 04:20:35;;;;;;;38.43;26.60;;;;;;;2.76;79.35;101116.22;4968134;28;20230;-57
2022/03/25 04:23:01;;;;;;;38.63;27.57;;;;;;;2.67;79.53;101106.13;4991735;28;20824;-58
2022/03/25 04:25:26;;;;;;;46.97;29.17;;;;;;;2.62;79.63;101111.22;4993307;28;20184;-58
2022/03/25 04:27:57;;;;;;;36.87;25.90;;;;;;;2.61;79.76;101108.72;4992989;28;20238;-59
2022/03/25 04:30:28;;;;;;;37.83;27.47;;;;;;;2.65;80.32;101107.81;4963819;28;20351;-59
2022/03/25 04:32:55;;;;;;;40.33;28.20;;;;;;;2.61;80.84;101113.78;4981769;28;20179;-58
2022/03/25 04:35:21;;;;;;;40.67;27.27;;;;;;;2.61;81.00;101104.47;5009064;28;20178;-57
2022/03/25 04:37:47;;;;;;;41.47;26.47;;;;;;;2.69;80.72;101107.81;5009657;28;20178;-61
2022/03/25 04:40:17;;;;;;;37.17;25.93;;;;;;;2.70;80.79;101111.19;4999186;28;20186;-59
2022/03/25 04:42:44;;;;;;;39.57;27.40;;;;;;;2.61;80.95;101113.78;5007969;28;20217;-58
2022/03/25 04:45:09;;;;;;;36.10;26.13;;;;;;;2.58;81.17;101120.56;5008797;28;20241;-59
2022/03/25 04:47:34;;;;;;;39.20;27.07;;;;;;;2.63;81.17;101107.84;5012378;28;20175;-56
2022/03/25 04:49:59;;;;;;;38.57;27.13;;;;;;;2.55;81.10;101114.66;5011901;28;20195;-58
2022/03/25 04:52:25;;;;;;;38.00;27.20;;;;;;;2.50;81.27;101116.38;4992026;28;20235;-57
2022/03/25 04:54:51;;;;;;;39.47;27.57;;;;;;;2.52;82.02;101119.75;4990979;28;20278;-57
2022/03/25 04:57:17;;;;;;;39.87;27.53;;;;;;;2.57;81.84;101118.03;4992610;28;20643;-56
2022/03/25 04:59:42;;;;;;;38.37;29.27;;;;;;;2.53;81.74;101131.59;4991302;28;20171;-58
2022/03/25 05:02:09;;;;;;;39.07;27.53;;;;;;;2.42;82.91;101124.03;4980251;28;20579;-57
2022/03/25 05:04:35;;;;;;;47.67;29.20;;;;;;;2.42;83.08;101129.13;4991667;28;20199;-57
2022/03/25 05:07:01;;;;;;;46.73;28.30;;;;;;;2.38;83.31;101127.41;4992593;28;20183;-57
2022/03/25 05:09:26;;;;;;;41.57;28.70;;;;;;;2.33;83.88;101130.00;4992530;28;20190;-57
2022/03/25 05:11:51;;;;;;;38.03;28.23;;;;;;;2.36;84.09;101132.50;4981167;28;20643;-57
2022/03/25 05:14:16;;;;;;;39.33;27.47;;;;;;;2.32;84.00;101127.44;4991815;28;20729;-57
2022/03/25 05:16:42;;;;;;;35.37;26.90;;;;;;;2.38;83.96;101129.94;4991018;28;20302;-58
2022/03/25 05:19:07;;;;;;;43.17;28.37;;;;;;;2.43;84.05;101130.78;4992043;28;20221;-57
2022/03/25 05:21:32;;;;;;;41.27;27.50;;;;;;;2.48;83.43;101130.75;4981499;28;20231;-57
2022/03/25 05:23:57;;;;;;;42.47;27.50;;;;;;;2.52;83.43;101132.47;4991461;28;20556;-58
2022/03/25 05:26:23;;;;;;;41.53;28.97;;;;;;;2.58;83.14;101137.50;4991671;28;20175;-57
2022/03/25 05:28:48;;;;;;;40.27;27.70;;;;;;;2.56;82.81;101140.03;4992093;28;20187;-57
2022/03/25 05:31:13;;;;;;;39.67;28.57;;;;;;;2.60;82.68;101143.41;4991353;28;20336;-57
2022/03/25 05:33:39;;;;;;;41.87;29.73;;;;;;;2.61;82.57;101146.81;4997596;28;20514;-60
2022/03/25 05:36:04;;;;;;;39.37;28.97;;;;;;;2.66;82.51;101152.72;4990275;28;20179;-57
2022/03/25 05:38:30;;;;;;;40.67;28.97;;;;;;;2.72;81.75;101156.06;4992125;28;20187;-57
2022/03/25 05:40:56;;;;;;;40.60;29.60;;;;;;;2.80;81.45;101143.28;4983839;28;20269;-57
2022/03/25 05:43:21;;;;;;;37.63;26.97;;;;;;;2.79;81.38;101150.94;4999773;28;20262;-57
2022/03/25 05:45:47;;;;;;;39.80;28.40;;;;;;;2.83;81.54;101150.91;4992036;28;20190;-57
2022/03/25 05:48:12;;;;;;;40.47;28.70;;;;;;;2.82;81.75;101159.38;4991697;28;20194;-58
2022/03/25 05:50:37;;;;;;;40.13;27.27;;;;;;;2.95;81.69;101161.88;4986144;28;20235;-58
2022/03/25 05:53:03;;;;;;;41.53;28.53;;;;;;;3.00;80.98;101166.09;4990199;28;20188;-59
2022/03/25 05:55:28;;;;;;;41.77;29.30;;;;;;;3.12;80.33;101172.78;4991929;28;20262;-60
2022/03/25 05:57:53;;;;;;;45.40;29.40;;;;;;;3.16;79.96;101166.84;4992004;28;20632;-58
2022/03/25 06:00:19;;;;;;;40.23;28.23;;;;;;;3.23;79.89;101170.16;4981704;28;20177;-58
2022/03/25 06:02:45;;;;;;;42.33;29.00;;;;;;;3.29;79.63;101172.66;4976406;28;20228;-58
2022/03/25 06:05:11;;;;;;;40.67;27.27;;;;;;;3.35;79.94;101171.75;4989862;28;20193;-58
2022/03/25 06:07:42;;;;;;;45.17;28.97;;;;;;;3.43;78.94;101177.66;4990666;28;20258;-58
2022/03/25 06:10:09;;;;;;;36.73;27.23;;;;;;;3.65;77.63;101183.41;4980136;28;20244;-58
2022/03/25 06:12:35;;;;;;;40.00;28.80;;;;;;;3.91;76.43;101181.47;4991660;28;20176;-58
2022/03/25 06:15:01;;;;;;;41.17;29.00;;;;;;;3.95;75.91;101181.44;4993317;28;20218;-58
2022/03/25 06:17:26;;;;;;;41.33;28.93;;;;;;;3.99;76.12;101183.09;4993963;28;20812;-58
2022/03/25 06:19:53;;;;;;;42.97;28.57;;;;;;;4.12;75.71;101176.19;4995282;28;20208;-60
2022/03/25 06:22:18;;;;;;;42.27;28.67;;;;;;;4.31;75.31;101178.53;4969111;28;20259;-59
2022/03/25 06:24:44;;;;;;;43.00;29.03;;;;;;;4.48;74.68;101183.44;4992944;28;20259;-59
2022/03/25 06:27:10;;;;;;;39.57;28.63;;;;;;;4.57;73.81;101178.22;4993954;28;20588;-58
2022/03/25 06:29:37;;;;;;;38.53;28.77;;;;;;;4.81;73.46;101183.88;4995211;28;20220;-58
2022/03/25 06:32:05;;;;;;;54.50;31.70;;;;;;;5.00;71.94;101185.31;4986757;28;20717;-59
2022/03/25 06:34:30;;;;;;;38.17;29.03;;;;;;;5.17;71.33;101182.53;4994736;28;20245;-57
2022/03/25 06:36:55;;;;;;;40.77;27.27;;;;;;;5.42;70.48;101184.72;4995178;28;20184;-57
2022/03/25 06:39:21;;;;;;;44.23;29.73;;;;;;;5.60;69.54;101175.06;4995059;28;20255;-57
2022/03/25 06:41:46;;;;;;;46.20;27.97;;;;;;;5.68;69.48;101180.91;4997998;28;20738;-58
2022/03/25 06:44:12;;;;;;;48.90;29.00;;;;;;;5.87;68.79;101186.50;4996148;28;20227;-57
2022/03/25 06:46:38;;;;;;;39.97;27.47;;;;;;;6.00;66.30;101179.50;4993476;28;20520;-56
2022/03/25 06:49:04;;;;;;;41.83;28.63;;;;;;;6.43;65.89;101182.97;4994698;28;20222;-56
2022/03/25 06:51:29;;;;;;;39.23;27.80;;;;;;;6.93;63.94;101181.06;4995530;28;20222;-55
2022/03/25 06:53:55;;;;;;;51.13;29.77;;;;;;;7.74;60.25;101174.06;4998251;28;20623;-56
2022/03/25 06:56:20;;;;;;;38.77;27.23;;;;;;;8.64;55.33;101185.31;5012425;28;20192;-56
2022/03/25 06:58:46;;;;;;;42.93;29.23;;;;;;;9.90;51.29;101182.22;5013000;28;20212;-60
2022/03/25 07:01:12;;;;;;;37.07;29.23;;;;;;;11.65;47.12;101179.94;5002200;28;20593;-57
2022/03/25 07:03:38;;;;;;;34.13;28.30;;;;;;;12.59;43.41;101176.75;5007079;28;20301;-56
2022/03/25 07:06:04;;;;;;;38.37;29.53;;;;;;;13.71;40.60;101174.84;5013046;28;20270;-56
2022/03/25 07:08:29;;;;;;;37.20;28.90;;;;;;;15.37;37.69;101180.72;5006676;28;20181;-58
2022/03/25 07:10:56;;;;;;;36.57;30.23;;;;;;;16.67;34.51;101185.97;5000097;28;20305;-58
2022/03/25 07:13:22;;;;;;;36.93;29.90;;;;;;;16.56;34.31;101184.91;4999526;28;20241;-58
2022/03/25 07:15:47;;;;;;;31.97;28.53;;;;;;;17.24;33.02;101179.75;5012624;28;20638;-61
2022/03/25 07:18:12;;;;;;;39.67;29.17;;;;;;;17.40;32.11;101190.84;5012937;28;20220;-59
2022/03/25 07:20:37;;;;;;;42.10;31.77;;;;;;;16.48;32.78;101191.50;5002576;28;20574;-57
2022/03/25 07:23:03;;;;;;;38.40;31.67;;;;;;;16.07;34.72;101196.50;4999604;28;20195;-57
2022/03/25 07:25:31;;;;;;;35.13;29.70;;;;;;;18.55;31.91;101194.31;5006700;28;20326;-57
2022/03/25 07:27:56;;;;;;;34.67;30.97;;;;;;;17.71;30.11;101195.75;5012288;28;20257;-57
2022/03/25 07:30:21;;;;;;;35.97;29.07;;;;;;;17.63;30.17;101204.06;5000563;28;20298;-58
2022/03/25 07:32:47;;;;;;;35.97;29.90;;;;;;;18.77;29.79;101203.22;4996503;28;20175;-58
2022/03/25 07:35:13;;;;;;;35.53;29.40;;;;;;;18.97;28.72;101204.41;5011577;28;20197;-59
2022/03/25 07:37:43;;;;;;;37.43;29.33;;;;;;;19.62;27.86;101204.03;5011175;28;20217;-56
2022/03/25 07:40:09;;;;;;;34.27;30.03;;;;;;;20.06;27.06;101212.09;4998342;28;20176;-56
2022/03/25 07:42:39;;;;;;;33.03;29.33;;;;;;;20.06;27.26;101206.84;5001155;28;20232;-56
2022/03/25 07:45:08;;;;;;;36.50;30.53;;;;;;;21.26;25.78;101215.63;5007402;28;20567;-59
2022/03/25 07:47:35;;;;;;;34.50;30.63;;;;;;;21.37;24.60;101217.38;5012369;28;20254;-56
2022/03/25 07:50:00;;;;;;;34.93;31.30;;;;;;;21.60;24.25;101215.47;5011094;28;20179;-57
2022/03/25 07:52:26;;;;;;;40.83;29.57;;;;;;;21.85;23.94;101221.25;4991473;28;20230;-56
2022/03/25 07:54:51;;;;;;;36.67;32.47;;;;;;;20.45;24.93;101217.75;4993005;28;20266;-57
2022/03/25 07:57:17;;;;;;;36.90;32.00;;;;;;;20.58;24.65;101210.59;4993977;28;20184;-65
2022/03/25 07:59:42;;;;;;;37.00;31.93;;;;;;;19.89;25.37;101221.19;4981446;28;20184;-65
2022/03/25 08:02:08;;;;;;;38.90;31.80;;;;;;;20.38;25.09;101213.94;4954004;28;20315;-65
2022/03/25 08:04:33;;;;;;;34.20;30.63;;;;;;;20.32;26.03;101210.88;5009656;28;20203;-65
2022/03/25 08:06:58;;;;;;;34.70;30.87;;;;;;;20.40;25.77;101217.28;5009399;28;20179;-63
2022/03/25 08:09:24;;;;;;;36.40;31.37;;;;;;;20.05;26.11;101213.84;5007832;28;20175;-65
2022/03/25 08:11:49;;;;;;;38.10;33.97;;;;;;;20.62;24.74;101212.00;4998674;28;20902;-62
2022/03/25 08:14:16;;;;;;;38.17;32.40;;;;;;;19.48;26.37;101211.13;5007609;28;20630;-63
2022/03/25 08:16:45;;;;;;;37.73;31.10;;;;;;;18.05;28.50;101214.31;4980912;28;20258;-63
2022/03/25 08:19:11;;;;;;;37.03;30.57;;;;;;;18.47;27.80;101214.88;4990956;28;20204;-64
2022/03/25 08:21:37;;;;;;;37.03;31.37;;;;;;;20.10;25.65;101206.47;4981836;28;20293;-65
2022/03/25 08:29:30;;;;;;;36.67;32.67;;;;;;;21.15;24.13;101220.06;5010167;28;20255;-64
2022/03/25 08:31:56;;;;;;;41.47;33.10;;;;;;;20.95;24.15;101223.38;4964642;28;20314;-66
2022/03/25 08:34:21;;;;;;;42.63;34.13;;;;;;;21.64;23.59;101220.47;4998092;28;20179;-64
2022/03/25 08:36:48;;;;;;;42.53;33.70;;;;;;;21.42;23.45;101227.44;4997284;28;20285;-66
2022/03/25 08:39:14;;;;;;;38.97;33.17;;;;;;;20.47;24.79;101231.53;5001231;28;20182;-67
2022/03/25 08:41:39;;;;;;;40.20;35.87;;;;;;;19.61;25.48;101220.63;4984774;28;20231;-66
2022/03/25 08:44:06;;;;;;;38.43;33.03;;;;;;;17.59;28.22;101228.63;5007580;28;20685;-65
2022/03/25 08:46:34;;;;;;;41.20;33.60;;;;;;;16.99;29.46;101232.50;5012184;28;20281;-66
2022/03/25 08:48:59;;;;;;;42.23;33.17;;;;;;;16.34;30.79;101228.72;5008760;28;20172;-65
2022/03/25 08:51:24;;;;;;;40.17;34.20;;;;;;;16.17;30.74;101224.53;4991216;28;20224;-66
2022/03/25 08:53:50;;;;;;;46.57;33.40;;;;;;;16.81;29.75;101219.72;5002635;28;20261;-65
2022/03/25 08:56:16;;;;;;;41.20;33.07;;;;;;;17.83;28.89;101220.94;5000942;28;20182;-65
2022/03/25 08:58:41;;;;;;;39.17;33.40;;;;;;;19.34;26.76;101225.19;4989193;28;20185;-63
2022/03/25 09:01:07;;;;;;;40.30;33.50;;;;;;;19.81;25.67;101229.59;4971516;28;20297;-65
2022/03/25 09:03:32;;;;;;;43.10;33.93;;;;;;;20.91;24.58;101226.34;4983005;28;20211;-63
2022/03/25 09:05:58;;;;;;;40.97;34.57;;;;;;;21.82;23.75;101223.31;4986286;28;20226;-64
2022/03/25 09:08:24;;;;;;;43.73;34.83;;;;;;;22.35;22.70;101223.13;4986773;28;20219;-64
2022/03/25 09:10:50;;;;;;;38.83;33.30;;;;;;;21.88;23.06;101230.63;4995512;28;20353;-64
2022/03/25 09:13:16;;;;;;;38.67;34.13;;;;;;;21.13;24.58;101228.06;5010064;28;20333;-66
2022/03/25 09:15:41;;;;;;;40.57;35.03;;;;;;;21.84;23.07;101229.25;5010029;28;20215;-66
2022/03/25 09:18:07;;;;;;;39.70;34.63;;;;;;;22.44;22.49;101223.31;4996498;28;20203;-67
2022/03/25 09:20:32;;;;;;;40.17;35.23;;;;;;;22.04;22.67;101231.00;4981662;28;20250;-65
2022/03/25 09:22:58;;;;;;;39.13;34.80;;;;;;;21.52;23.50;101232.75;4982676;28;20280;-65
2022/03/25 09:25:23;;;;;;;39.63;35.20;;;;;;;20.94;23.84;101229.53;5005820;28;20536;-63
2022/03/25 09:27:49;;;;;;;42.17;35.40;;;;;;;21.52;23.74;101235.38;5010812;28;20186;-62
2022/03/25 09:30:15;;;;;;;39.17;34.97;;;;;;;21.22;23.71;101229.09;4997972;28;20511;-63
2022/03/25 09:32:40;;;;;;;38.67;34.50;;;;;;;19.66;25.57;101227.19;4997962;28;20190;-63
2022/03/25 09:35:08;;;;;;;45.50;36.20;;;;;;;19.99;25.48;101227.38;5007804;28;20222;-66
2022/03/25 09:37:39;;;;;;;41.10;36.60;;;;;;;19.64;26.26;101226.47;5010243;28;20280;-64
2022/03/25 09:40:13;;;;;;;40.40;33.80;;;;;;;19.92;26.30;101236.63;4991874;28;20397;-65
2022/03/25 09:42:40;;;;;;;38.63;34.57;;;;;;;19.66;26.13;101227.19;5005566;28;20622;-64
2022/03/25 09:45:06;;;;;;;41.20;36.73;;;;;;;20.14;25.98;101227.97;4990053;28;20538;-63
2022/03/25 09:47:32;;;;;;;43.87;35.23;;;;;;;20.44;25.54;101230.00;5000749;28;20178;-63
2022/03/25 09:49:58;;;;;;;44.03;36.50;;;;;;;20.18;26.20;101239.88;5015292;28;20245;-65
2022/03/25 09:52:26;;;;;;;43.37;36.03;;;;;;;21.04;25.20;101241.91;4995328;28;20227;-63
2022/03/25 09:54:51;;;;;;;41.10;36.63;;;;;;;21.83;24.12;101233.66;4993957;28;20534;-64
2022/03/25 09:57:17;;;;;;;39.17;34.97;;;;;;;21.17;24.84;101236.50;4995867;28;20176;-62
2022/03/25 09:59:43;;;;;;;46.07;37.47;;;;;;;20.92;25.63;101228.00;5000328;28;20673;-64
2022/03/25 10:02:08;;;;;;;40.97;35.57;;;;;;;21.84;24.58;101226.63;5003604;28;20349;-64
2022/03/25 10:04:44;;;;;;;42.00;37.53;;;;;;;21.53;25.66;101227.41;5014168;28;20308;-63
2022/03/25 10:07:42;;;;;;;50.78;42.85;;;;;;;22.67;23.25;101232.59;4995396;28;20605;-64
2022/03/25 10:10:09;;;;;;;46.53;37.83;;;;;;;22.98;23.24;101229.06;4985928;28;20673;-65
2022/03/25 10:12:36;;;;;;;38.73;34.63;;;;;;;22.97;23.37;101228.25;5009623;28;20180;-65
2022/03/25 10:15:21;;;;;;;42.97;38.53;;;;;;;24.27;21.42;101224.25;4991996;28;20467;-61
2022/03/25 10:17:52;;;;;;;47.58;36.45;;;;;;;23.23;23.03;101225.06;5003923;28;20197;-61
2022/03/25 10:20:19;;;;;;;42.95;38.17;;;;;;;23.42;23.36;101223.38;5002210;28;20411;-61
2022/03/25 10:23:00;;;;;;;39.80;35.45;;;;;;;22.70;24.43;101227.09;5002093;28;20258;-61
2022/03/25 10:25:35;;;;;;;42.88;38.25;;;;;;;22.52;23.66;101226.09;4994450;28;20474;-61
2022/03/25 10:28:01;;;;;;;41.17;33.97;;;;;;;20.96;24.71;101224.19;4995015;28;20271;-60
2022/03/25 10:30:37;;;;;;;41.67;37.20;;;;;;;21.19;23.63;101226.75;4984392;28;20519;-59
2022/03/25 10:33:09;;;;;;;40.43;36.03;;;;;;;20.13;25.25;101228.91;4993714;28;20659;-60
2022/03/25 10:42:19;;;;;;;44.43;33.53;;;;;;;17.89;27.73;101217.09;4961826;28;20278;-61
2022/03/25 10:44:45;;;;;;;45.20;34.83;;;;;;;17.86;28.30;101227.72;4972510;28;20351;-62
2022/03/25 10:47:16;;;;;;;43.42;37.58;;;;;;;17.53;28.01;101219.47;4972164;28;20525;-62
2022/03/25 10:49:43;;;;;;;44.80;35.92;;;;;;;17.21;27.99;101224.16;4987654;28;20417;-62
2022/03/25 10:52:32;;;;;;;42.60;33.57;;;;;;;16.68;28.19;101211.84;4979224;28;20257;-64
2022/03/25 10:55:20;;;;;;;41.47;33.07;;;;;;;16.68;28.43;101221.41;4973825;28;20198;-61
2022/03/25 10:57:58;;;;;;;37.73;30.77;;;;;;;16.36;28.38;101212.09;4991445;28;20203;-61
2022/03/25 11:00:25;;;;;;;39.00;31.97;;;;;;;16.31;29.27;101216.75;4980526;28;20542;-59
2022/03/25 11:02:51;;;;;;;39.63;32.70;;;;;;;16.14;29.46;101216.00;4991819;28;20318;-61
2022/03/25 11:05:17;;;;;;;42.63;31.53;;;;;;;16.40;29.26;101213.56;4991776;28;20189;-60
2022/03/25 11:07:46;;;;;;;39.00;34.07;;;;;;;16.54;28.98;101214.50;4991557;28;20413;-60
2022/03/25 11:10:17;;;;;;;41.27;32.37;;;;;;;16.56;29.12;101215.22;4983757;28;20195;-60
2022/03/25 11:12:48;;;;;;;38.10;30.43;;;;;;;16.27;29.23;101217.84;4992526;28;20623;-60
2022/03/25 11:15:15;;;;;;;43.70;32.77;;;;;;;16.36;29.84;101209.50;4988435;28;20190;-61
2022/03/25 11:17:42;;;;;;;43.47;32.13;;;;;;;16.52;29.75;101201.59;5012466;28;20187;-61
2022/03/25 11:20:11;;;;;;;40.60;32.63;;;;;;;16.43;28.75;101207.34;5003115;28;20183;-61
2022/03/25 11:22:47;;;;;;;41.17;32.80;;;;;;;16.36;29.42;101212.09;4995381;28;20184;-60